Airfield :
LOGIN :

Register | Disclaimer

   EN    FR    IT 

 










Legend :    VFR   Marginal VFR   IFR   Intensive IFR   Very Intensive IFR
Visi :
Ceiling :
>= 8 km
>= 3000ft
5 to 8 km
1000 to 3000 ft
1500m to 5 km
500 to 1000 ft
800 to 1500m
200 to 500 ft
< 800m
< 200 ft
Symbols :   Thunderstorms  Fog  Heavy snow  Heavy precipitations  Wind > 20 kt
SIGMETs :     Misc.  Thunderstorms  Icing  Turbulence  Mountain Waves  Volcanic Ashes







- Airport Elevation : 665 ft
- IATA code : NOC


EIKN - Connaught / Knock- Ireland West

CURRENT METAR :
  • 201800Z 25004KT 210V310 5000 -RADZ BKN003 BKN024 17/16 Q1018 TEMPO BKN006

EXPIRED METARs :
  • 201730Z 34004KT 6000 -DZ BKN003 BKN025 17/16 Q1018 NOSIG
  • 201700Z 32005KT 270V020 6000 -DZ BKN007 BKN015 17/16 Q1018 NOSIG
  • 201630Z 26006KT 230V290 6000 FEW008 BKN012 BKN032 18/16 Q1018 NOSIG
  • 201600Z 25006KT 200V280 9000 FEW008 BKN012 BKN034 18/15 Q1018 NOSIG
  • 201530Z 22006KT 180V250 9999 FEW008 BKN033 19/16 Q1019 NOSIG

TAF TAF EIKN
Valid from the 20 at 18:00 until the 21 at 18:00 UTC


201700Z 2018/2118 23006KT 9999 SCT008 BKN012
BECMG 2018/2021 4000 BKN006
TEMPO 2018/2115 1200 -DZ BR BKN003
BECMG 2020/2023 20007KT
PROB30
TEMPO 2100/2112 0400 FG BKN001
No reported NOTAMs for that airfield.



MET'MAP, your aeronautical weather chart ! - Copyright ORBIFLY December 2007 - Disclaimer

ORBIFLY MET'MAP TEAM :

Programming & Development : Alexandra Zaïnal
Concept & Development : Baudouin d'Aumeries
Co-Development & Prog : Marc-Olivier Méhu
Technical & hardware support : Manuel Goepfert

Contact : metmap@orbifly.com




SOURCES & CREDITS :

   NOAA